Capitol Logistics 414


KRFD
Chicago/Rockford International Airport
Rockford, Illinois, US
KSMF
Sacramento International Airport
Sacramento, California, US

Route Details

Aircraft Information
Primary: Boeing 757-200SF
Backup: Boeing 737-800BCF
Route Data
Distance: 1511nm
Sched. Duration: 4h 09m
Avg. Duration: 3h 75m (-34m)
Times Flown: 6
Recm'd Route: DBQ J94 BFF J157 LAR TCH J154 BAM J94 LLC ANAHO SLMMR3
Planned Altitude: 36,000ft
Origin Wx: KRFD 160854Z 29008KT 3SM -SN BR OVC006 01/M01 A2958 RMK AO2 SLP024 P0001 60004 T00111011 55004
Dest. Wx: KSMF 160853Z 31003KT 4SM BR FEW140 FEW200 09/08 A3021 RMK AO2 SLP228 T00890078 58007
Notes:

Financial History
Total Freight: 360,305lbs
Average Load: 60,051lbs/flt
Fuel Used: 186,403lbs
Avg. Fuel Used: 31,067lbs/flt
Fuel Expense: $127,763
Avg. Fuel Expense: $21,294
Avg. Fuel Cost: $0.68/lbs
Total Gross Income: $479,375
Pilot Pay: $1,004
Total Expenses: $52,084
Total Revenue: $294,086
Average Revenue: $79,895.77